Terminal Aerodrome Forecast
Issued by NWS

Home | Current Version | Previous Version | Text Only | Print | Product List | Glossary On
Versions: 1 2 3 4 5 6 7 8 9 10 11 12 13 14 15 16 17 18 19 20 21 22 23
039
FTAK31 PAJN 240601 AAA
TAFAYA
TAF AMD
PAYA 240601Z 2406/2506 10003KT P6SM -SHRA FEW025 BKN035 OVC050
      TEMPO 2407/2411 6SM -SHRA BR BKN005 BKN015 OVC035
     FM241500 14008KT 6SM -RA BR SCT007 BKN020 OVC030
      AMD LTD TO CLD VIS AND WIND 2406/2409=

USA.gov is the U.S. government's official web portal to all federal, state and local government web resources and services.